Time;durP1;ratioP1;P1;durP2;ratioP2;P2;SDS_P1;SDS_P2;PMS_P1;PMS_P2;Temp;Humidity;BMP_temperature;BMP_pressure;BME280_temperature;BME280_humidity;BME280_pressure;Samples;Min_cycle;Max_cycle;Signal;HPM_P1;HPM_P2
2023/09/26 00:00:36;;;;;;;6.37;3.87;;;;;;;-148.15;100.00;61821.78;4929331;29;20767;-94
2023/09/26 00:03:01;;;;;;;9.23;4.33;;;;;;;-148.15;100.00;61821.78;4958099;28;20295;-95
2023/09/26 00:05:27;;;;;;;5.33;3.50;;;;;;;-148.15;100.00;61821.78;4958816;28;20027;-93
2023/09/26 00:07:52;;;;;;;6.82;4.07;;;;;;;-148.15;100.00;61821.78;4951034;28;20511;-95
2023/09/26 00:10:18;;;;;;;10.43;4.13;;;;;;;-148.15;100.00;61821.78;4945459;29;20046;-93
2023/09/26 00:12:44;;;;;;;6.40;3.83;;;;;;;-148.15;100.00;61821.78;4941374;29;20028;-93
2023/09/26 00:15:11;;;;;;;5.30;4.17;;;;;;;-148.15;100.00;61821.78;4917389;29;20035;-92
2023/09/26 00:17:37;;;;;;;4.90;3.90;;;;;;;-148.15;100.00;61821.78;4952940;29;20019;-94
2023/09/26 00:20:45;;;;;;;5.15;3.78;;;;;;;-148.15;100.00;61821.78;4951399;29;20051;-93
2023/09/26 00:22:51;;;;;;;7.43;4.28;;;;;;;-148.15;100.00;61821.78;4916542;29;20492;-94
2023/09/26 00:25:17;;;;;;;6.90;4.07;;;;;;;-148.15;100.00;61821.78;4944481;29;20027;-94
2023/09/26 00:27:42;;;;;;;8.10;4.60;;;;;;;-148.15;100.00;61821.78;4903985;29;20050;-94
2023/09/26 00:30:12;;;;;;;5.80;4.07;;;;;;;-148.15;100.00;61821.78;4923893;29;20024;-93
2023/09/26 00:32:38;;;;;;;5.45;4.13;;;;;;;-148.15;100.00;61821.78;4915973;29;20043;-94
2023/09/26 00:35:05;;;;;;;7.50;4.83;;;;;;;-148.15;100.00;61821.78;4916845;29;20114;-93
2023/09/26 00:37:31;;;;;;;7.53;5.17;;;;;;;-148.15;100.00;61821.78;4915615;29;20298;-92
2023/09/26 00:39:56;;;;;;;8.75;5.22;;;;;;;-148.15;100.00;61821.78;4915610;29;20024;-94
2023/09/26 00:42:22;;;;;;;8.27;5.25;;;;;;;-148.15;100.00;61821.78;4912954;29;20038;-93
2023/09/26 00:44:47;;;;;;;7.47;5.27;;;;;;;-148.15;100.00;61821.78;4934231;29;20027;-93
2023/09/26 00:47:12;;;;;;;7.53;5.00;;;;;;;-148.15;100.00;61821.78;4935259;29;20480;-94
2023/09/26 00:49:38;;;;;;;7.90;5.40;;;;;;;-148.15;100.00;61821.78;4936553;28;20008;-93
2023/09/26 00:52:05;;;;;;;8.07;5.90;;;;;;;-148.15;100.00;61821.78;4947122;28;20656;-94
2023/09/26 00:54:30;;;;;;;7.50;5.43;;;;;;;-148.15;100.00;61821.78;4934701;29;20020;-93
2023/09/26 00:56:57;;;;;;;6.53;5.13;;;;;;;-148.15;100.00;61821.78;4934084;29;20078;-93
2023/09/26 00:59:23;;;;;;;7.85;5.70;;;;;;;-148.15;100.00;61821.78;4934055;29;20042;-93
2023/09/26 01:01:50;;;;;;;8.23;5.45;;;;;;;-148.15;100.00;61821.78;4931169;29;20042;-93
2023/09/26 01:04:16;;;;;;;9.95;6.15;;;;;;;-148.15;100.00;61821.78;4938936;29;20051;-94
2023/09/26 01:06:43;;;;;;;7.70;5.50;;;;;;;-148.15;100.00;61821.78;4923165;29;20024;-92
2023/09/26 01:09:10;;;;;;;10.73;5.80;;;;;;;-148.15;100.00;61821.78;4932822;29;20038;-93
2023/09/26 01:11:37;;;;;;;6.72;5.63;;;;;;;-148.15;100.00;61821.78;4952185;28;20008;-93
2023/09/26 01:14:02;;;;;;;7.82;5.28;;;;;;;-148.15;100.00;61821.78;4961517;28;20023;-94
2023/09/26 01:16:27;;;;;;;10.43;5.67;;;;;;;-148.15;100.00;61821.78;4960445;28;20027;-93
2023/09/26 01:18:53;;;;;;;9.33;6.07;;;;;;;-148.15;100.00;61821.78;4976856;28;20027;-94
2023/09/26 01:21:18;;;;;;;10.50;6.30;;;;;;;-148.15;100.00;61821.78;4928798;29;20068;-93
2023/09/26 01:23:58;;;;;;;8.27;6.10;;;;;;;-148.15;100.00;61821.78;4938025;29;20039;-93
2023/09/26 01:26:24;;;;;;;8.03;5.70;;;;;;;-148.15;100.00;61821.78;4949850;29;20027;-94
2023/09/26 01:28:50;;;;;;;8.83;5.50;;;;;;;-148.15;100.00;61821.78;4931003;29;20750;-93
2023/09/26 01:31:15;;;;;;;10.70;5.85;;;;;;;-148.15;100.00;61821.78;4917824;29;20031;-92
2023/09/26 01:33:41;;;;;;;6.87;6.17;;;;;;;-148.15;100.00;61821.78;4922382;29;20624;-93
2023/09/26 01:36:06;;;;;;;7.60;6.10;;;;;;;-148.15;100.00;61821.78;4932910;29;20034;-93
2023/09/26 01:38:32;;;;;;;7.03;6.20;;;;;;;-148.15;100.00;61821.78;4926133;29;20028;-94
2023/09/26 01:40:57;;;;;;;8.23;6.80;;;;;;;-148.15;100.00;61821.78;4937114;29;20031;-94
2023/09/26 01:43:22;;;;;;;7.93;6.67;;;;;;;-148.15;100.00;61821.78;4938110;29;20035;-94
2023/09/26 01:45:48;;;;;;;8.30;6.68;;;;;;;-148.15;100.00;61821.78;4954129;29;20043;-93
2023/09/26 01:48:46;;;;;;;10.60;6.73;;;;;;;-148.15;100.00;61821.78;4943033;29;20050;-94
2023/09/26 01:51:11;;;;;;;11.00;6.88;;;;;;;-148.15;100.00;61821.78;4952912;29;20066;-93
2023/09/26 01:53:37;;;;;;;9.13;6.53;;;;;;;-148.15;100.00;61821.78;4956411;28;20024;-91
2023/09/26 01:56:02;;;;;;;9.20;6.47;;;;;;;-148.15;100.00;61821.78;4956465;28;20092;-92
2023/09/26 01:58:27;;;;;;;7.47;6.63;;;;;;;-148.15;100.00;61821.78;4970481;28;20090;-92
2023/09/26 02:00:53;;;;;;;10.10;6.90;;;;;;;-148.15;100.00;61821.78;4952092;29;20015;-93
2023/09/26 02:09:14;;;;;;;7.60;6.40;;;;;;;-148.15;100.00;61821.78;4975825;23;20113;-92
2023/09/26 02:11:40;;;;;;;8.97;7.27;;;;;;;-148.15;100.00;61821.78;4953300;28;20046;-93
2023/09/26 02:14:05;;;;;;;8.77;6.85;;;;;;;-148.15;100.00;61821.78;4937848;29;20027;-95
2023/09/26 02:16:31;;;;;;;9.37;7.70;;;;;;;-148.15;100.00;61821.78;4945600;29;20127;-92
2023/09/26 02:18:56;;;;;;;8.20;7.10;;;;;;;-148.15;100.00;61821.78;4954295;29;20058;-93
2023/09/26 02:21:21;;;;;;;11.63;7.03;;;;;;;-148.15;100.00;61821.78;4943591;29;20036;-93
2023/09/26 02:23:47;;;;;;;7.57;6.80;;;;;;;-148.15;100.00;61821.78;4953732;29;20650;-92
2023/09/26 02:26:17;;;;;;;9.40;6.80;;;;;;;-148.15;100.00;61821.78;4955515;29;20018;-92
2023/09/26 02:28:42;;;;;;;10.60;6.90;;;;;;;-148.15;100.00;61821.78;4938989;29;20031;-93
2023/09/26 02:31:14;;;;;;;10.27;7.43;;;;;;;-148.15;100.00;61821.78;4938673;29;20299;-93
2023/09/26 02:33:43;;;;;;;8.07;7.28;;;;;;;-148.15;100.00;61821.78;4939547;29;20028;-96
2023/09/26 02:38:55;;;;;;;10.20;6.67;;;;;;;-148.15;100.00;61821.78;5837173;23;20275;-93
2023/09/26 02:41:21;;;;;;;10.73;7.45;;;;;;;-148.15;100.00;61821.78;4952045;28;20028;-93
2023/09/26 02:43:47;;;;;;;10.27;7.32;;;;;;;-148.15;100.00;61821.78;4936915;29;20035;-94
2023/09/26 02:46:16;;;;;;;9.17;7.13;;;;;;;-148.15;100.00;61821.78;4955952;29;20438;-94
2023/09/26 02:48:41;;;;;;;12.80;7.22;;;;;;;-148.15;100.00;61821.78;4958209;29;20031;-93
2023/09/26 02:51:06;;;;;;;11.23;7.73;;;;;;;-148.15;100.00;61821.78;4946884;29;20052;-93
2023/09/26 02:53:32;;;;;;;11.57;7.93;;;;;;;-148.15;100.00;61821.78;4964387;28;20578;-93
2023/09/26 02:55:57;;;;;;;9.53;7.60;;;;;;;-148.15;100.00;61821.78;4939353;29;20038;-93
2023/09/26 02:58:23;;;;;;;9.40;8.13;;;;;;;-148.15;100.00;61821.78;4955650;29;20090;-93
2023/09/26 03:00:50;;;;;;;11.23;7.63;;;;;;;-148.15;100.00;61821.78;4947526;29;20118;-94
2023/09/26 03:03:17;;;;;;;11.77;8.18;;;;;;;-148.15;100.00;61821.78;4947509;29;20031;-92
2023/09/26 03:05:49;;;;;;;11.27;8.27;;;;;;;-148.15;100.00;61821.78;4923591;29;20110;-93
2023/09/26 03:08:15;;;;;;;11.82;8.18;;;;;;;-148.15;100.00;61821.78;4934155;29;20387;-93
2023/09/26 03:10:40;;;;;;;9.33;8.30;;;;;;;-148.15;100.00;61821.78;4946121;29;20091;-93
2023/09/26 03:13:06;;;;;;;13.17;8.43;;;;;;;-148.15;100.00;61821.78;4952719;29;20032;-95
2023/09/26 03:15:32;;;;;;;11.50;7.85;;;;;;;-148.15;100.00;61821.78;4926197;29;20400;-93
2023/09/26 03:17:57;;;;;;;14.03;8.57;;;;;;;-148.15;100.00;61821.78;4919190;29;20118;-94
2023/09/26 03:20:22;;;;;;;10.38;8.07;;;;;;;-148.15;100.00;61821.78;4929720;29;20095;-93
2023/09/26 03:22:49;;;;;;;11.73;8.10;;;;;;;-148.15;100.00;61821.78;4938441;29;20034;-93
2023/09/26 03:25:14;;;;;;;9.23;8.30;;;;;;;-148.15;100.00;61821.78;4917555;29;20480;-91
2023/09/26 03:27:40;;;;;;;11.03;8.67;;;;;;;-148.15;100.00;61821.78;4948659;29;20031;-93
2023/09/26 03:30:07;;;;;;;11.65;8.32;;;;;;;-148.15;100.00;61821.78;4905887;29;20095;-94
2023/09/26 03:32:33;;;;;;;10.82;7.70;;;;;;;-148.15;100.00;61821.78;4933138;29;20167;-93
2023/09/26 03:34:59;;;;;;;13.37;8.17;;;;;;;-148.15;100.00;61821.78;4934232;29;20098;-93
2023/09/26 03:37:24;;;;;;;13.52;8.27;;;;;;;-148.15;100.00;61821.78;4924420;29;20027;-93
2023/09/26 03:39:49;;;;;;;12.30;8.50;;;;;;;-148.15;100.00;61821.78;4927242;29;20029;-93
2023/09/26 03:42:15;;;;;;;12.83;8.40;;;;;;;-148.15;100.00;61821.78;4938643;29;20114;-94
2023/09/26 03:44:43;;;;;;;11.50;8.60;;;;;;;-148.15;100.00;61821.78;4914952;29;20439;-94
2023/09/26 03:47:09;;;;;;;11.07;8.95;;;;;;;-148.15;100.00;61821.78;4928258;29;20026;-95
2023/09/26 03:49:34;;;;;;;10.88;8.52;;;;;;;-148.15;100.00;61821.78;4928507;29;20027;-92
2023/09/26 03:51:59;;;;;;;12.30;8.83;;;;;;;-148.15;100.00;61821.78;4952364;29;20388;-93
2023/09/26 03:54:25;;;;;;;11.40;8.53;;;;;;;-148.15;100.00;61821.78;5103920;23;20070;-92
2023/09/26 03:56:50;;;;;;;11.57;8.43;;;;;;;-148.15;100.00;61821.78;4954117;29;20502;-93
2023/09/26 03:59:16;;;;;;;10.83;8.83;;;;;;;-148.15;100.00;61821.78;4927589;29;20083;-90
2023/09/26 04:01:42;;;;;;;12.97;9.43;;;;;;;-148.15;100.00;61821.78;4946264;28;20317;-93
2023/09/26 04:04:08;;;;;;;11.93;8.68;;;;;;;-148.15;100.00;61821.78;4951649;29;20445;-94
2023/09/26 04:06:34;;;;;;;12.38;9.07;;;;;;;-148.15;100.00;61821.78;4950464;28;20019;-95
2023/09/26 04:08:59;;;;;;;11.80;8.93;;;;;;;-148.15;100.00;61821.78;4957152;28;21032;-93
2023/09/26 04:11:25;;;;;;;10.23;9.13;;;;;;;-148.15;100.00;61821.78;4957063;28;20508;-94
2023/09/26 04:13:50;;;;;;;11.20;9.13;;;;;;;-148.15;100.00;61821.78;4937317;29;20078;-93
2023/09/26 04:16:16;;;;;;;11.90;8.95;;;;;;;-148.15;100.00;61821.78;4938953;29;20032;-94
2023/09/26 04:18:45;;;;;;;10.80;8.60;;;;;;;-148.15;100.00;61821.78;4940666;29;20442;-93
2023/09/26 04:21:10;;;;;;;11.50;8.43;;;;;;;-148.15;100.00;61821.78;4948908;28;20026;-94
2023/09/26 04:23:35;;;;;;;13.07;9.43;;;;;;;-148.15;100.00;61821.78;4960422;28;20455;-94
2023/09/26 04:26:14;;;;;;;13.07;8.63;;;;;;;-148.15;100.00;61821.78;4949428;29;20303;-94
2023/09/26 04:28:40;;;;;;;12.37;8.80;;;;;;;-148.15;100.00;61821.78;4938638;29;20027;-93
2023/09/26 04:31:11;;;;;;;12.63;8.70;;;;;;;-148.15;100.00;61821.78;4954630;29;20749;-94
2023/09/26 04:33:36;;;;;;;12.15;9.75;;;;;;;-148.15;100.00;61821.78;4935184;29;20122;-95
2023/09/26 04:36:02;;;;;;;15.50;9.60;;;;;;;-148.15;100.00;61821.78;4950348;29;20066;-94
2023/09/26 04:38:27;;;;;;;12.95;9.85;;;;;;;-148.15;100.00;61821.78;4935489;29;20086;-94
2023/09/26 04:40:52;;;;;;;14.23;9.80;;;;;;;-148.15;100.00;61821.78;4947860;29;20459;-94
2023/09/26 04:43:17;;;;;;;11.07;9.40;;;;;;;-148.15;100.00;61821.78;4945677;29;20038;-93
2023/09/26 04:45:43;;;;;;;12.63;9.33;;;;;;;-148.15;100.00;61821.78;4935461;29;20032;-93
2023/09/26 04:48:08;;;;;;;16.00;9.77;;;;;;;-148.15;100.00;61821.78;4954496;29;20032;-95
2023/09/26 04:50:33;;;;;;;15.40;9.43;;;;;;;-148.15;100.00;61821.78;4954292;29;20480;-94
2023/09/26 04:52:59;;;;;;;15.70;10.57;;;;;;;-148.15;100.00;61821.78;4950382;29;20341;-96
2023/09/26 04:55:24;;;;;;;13.40;9.70;;;;;;;-148.15;100.00;61821.78;4943070;28;20031;-96
2023/09/26 04:57:50;;;;;;;12.10;8.97;;;;;;;-148.15;100.00;61821.78;4978937;28;20044;-94
2023/09/26 05:00:19;;;;;;;13.48;9.15;;;;;;;-148.15;100.00;61821.78;4955494;29;20019;-93
2023/09/26 05:02:49;;;;;;;13.07;10.07;;;;;;;-148.15;100.00;61821.78;4934222;29;20032;-95
2023/09/26 05:05:14;;;;;;;11.77;9.97;;;;;;;-148.15;100.00;61821.78;4936916;29;20276;-94
2023/09/26 05:07:44;;;;;;;12.00;9.98;;;;;;;-148.15;100.00;61821.78;4946914;28;20031;-91
2023/09/26 05:10:11;;;;;;;15.87;10.57;;;;;;;-148.15;100.00;61821.78;4955197;29;20070;-93
2023/09/26 05:12:40;;;;;;;11.03;9.13;;;;;;;-148.15;100.00;61821.78;4940718;29;20346;-93
2023/09/26 05:15:12;;;;;;;13.70;9.48;;;;;;;-148.15;100.00;61821.78;4950829;28;20122;-89
2023/09/26 05:17:40;;;;;;;15.35;10.10;;;;;;;-148.15;100.00;61821.78;4921923;28;20031;-87
2023/09/26 05:20:08;;;;;;;18.17;10.48;;;;;;;-148.15;100.00;61821.78;4960462;28;20030;-88
2023/09/26 05:22:33;;;;;;;16.10;10.05;;;;;;;-148.15;100.00;61821.78;4970129;28;20077;-87
2023/09/26 05:24:59;;;;;;;13.43;9.40;;;;;;;-148.15;100.00;61821.78;4953358;28;20042;-87
2023/09/26 05:27:24;;;;;;;13.67;10.27;;;;;;;-148.15;100.00;61821.78;4952870;28;20483;-86
2023/09/26 05:29:49;;;;;;;11.45;9.50;;;;;;;-148.15;100.00;61821.78;4957599;28;20027;-88
2023/09/26 05:32:14;;;;;;;12.93;10.07;;;;;;;-148.15;100.00;61821.78;4959945;28;20470;-88
2023/09/26 05:34:40;;;;;;;12.90;9.63;;;;;;;-148.15;100.00;61821.78;4951437;28;20475;-87
2023/09/26 05:37:05;;;;;;;12.40;10.30;;;;;;;-148.15;100.00;61821.78;4958564;28;20436;-89
2023/09/26 05:39:30;;;;;;;11.80;9.43;;;;;;;-148.15;100.00;61821.78;4945759;28;20036;-90
2023/09/26 05:41:56;;;;;;;14.03;10.47;;;;;;;-148.15;100.00;61821.78;4944585;29;20032;-88
2023/09/26 05:44:21;;;;;;;15.80;10.55;;;;;;;-148.15;100.00;61821.78;4931076;29;20062;-88
2023/09/26 05:46:46;;;;;;;13.00;9.80;;;;;;;-148.15;100.00;61821.78;4944169;29;20547;-88
2023/09/26 05:49:12;;;;;;;13.87;10.67;;;;;;;-148.15;100.00;61821.78;4933783;29;20027;-88
2023/09/26 05:51:37;;;;;;;15.03;9.83;;;;;;;-148.15;100.00;61821.78;4944508;29;20062;-89
2023/09/26 05:54:03;;;;;;;10.97;9.47;;;;;;;-148.15;100.00;61821.78;4954007;29;20053;-88
2023/09/26 05:56:28;;;;;;;14.68;9.27;;;;;;;-148.15;100.00;61821.78;4948772;28;20114;-87
2023/09/26 05:58:53;;;;;;;11.47;9.07;;;;;;;-148.15;100.00;61821.78;4950120;29;20087;-87
2023/09/26 06:01:18;;;;;;;11.87;8.93;;;;;;;-148.15;100.00;61821.78;4949705;29;20027;-88
2023/09/26 06:03:44;;;;;;;11.50;8.27;;;;;;;-148.15;100.00;61821.78;4951812;29;20031;-87
2023/09/26 06:06:09;;;;;;;12.10;9.20;;;;;;;-148.15;100.00;61821.78;4951069;29;20023;-88
2023/09/26 06:08:34;;;;;;;13.65;9.63;;;;;;;-148.15;100.00;61821.78;4952407;29;20364;-88
2023/09/26 06:11:02;;;;;;;12.03;9.60;;;;;;;-148.15;100.00;61821.78;4950706;29;20035;-88
2023/09/26 06:13:27;;;;;;;17.17;9.70;;;;;;;-148.15;100.00;61821.78;4952548;29;20023;-87
2023/09/26 06:15:55;;;;;;;13.47;9.97;;;;;;;-148.15;100.00;61821.78;4948832;29;20031;-87
2023/09/26 06:18:20;;;;;;;15.68;8.95;;;;;;;-148.15;100.00;61821.78;4940672;29;20031;-87
2023/09/26 06:20:45;;;;;;;13.40;9.57;;;;;;;-148.15;100.00;61821.78;4940404;29;20431;-87
2023/09/26 06:29:04;;;;;;;11.35;9.02;;;;;;;-148.15;100.00;61821.78;4932968;29;20100;-87
2023/09/26 06:31:29;;;;;;;11.68;9.02;;;;;;;-148.15;100.00;61821.78;4934709;29;20032;-88
2023/09/26 06:33:59;;;;;;;15.37;9.03;;;;;;;-148.15;100.00;61821.78;4934653;29;20554;-88
2023/09/26 06:36:25;;;;;;;11.52;9.55;;;;;;;-148.15;100.00;61821.78;4924247;29;20028;-88
2023/09/26 06:38:50;;;;;;;16.80;9.85;;;;;;;-148.15;100.00;61821.78;4944266;29;20382;-87
2023/09/26 06:41:16;;;;;;;12.27;9.00;;;;;;;-148.15;100.00;61821.78;4930735;29;20036;-87
2023/09/26 06:43:41;;;;;;;12.70;8.80;;;;;;;-148.15;100.00;61821.78;4933543;29;20038;-87
2023/09/26 06:46:08;;;;;;;13.00;9.77;;;;;;;-148.15;100.00;61821.78;4936995;29;20034;-87
2023/09/26 06:48:43;;;;;;;12.50;8.38;;;;;;;-148.15;100.00;61821.78;4942603;29;20031;-87
2023/09/26 06:51:09;;;;;;;14.75;9.38;;;;;;;-148.15;100.00;61821.78;4935082;29;20156;-87
2023/09/26 06:53:35;;;;;;;10.93;8.25;;;;;;;-148.15;100.00;61821.78;4936741;29;20523;-87
2023/09/26 06:56:05;;;;;;;12.45;8.82;;;;;;;-148.15;100.00;61821.78;4936589;29;20059;-87
2023/09/26 06:58:31;;;;;;;16.10;8.83;;;;;;;-148.15;100.00;61821.78;4918783;29;20035;-88
2023/09/26 07:00:57;;;;;;;12.00;8.70;;;;;;;-148.15;100.00;61821.78;4931612;29;20878;-87
2023/09/26 07:03:22;;;;;;;10.95;8.65;;;;;;;-148.15;100.00;61821.78;4917385;29;20084;-87
2023/09/26 07:05:48;;;;;;;9.30;8.40;;;;;;;-148.15;100.00;61821.78;4918394;29;20059;-87
2023/09/26 07:08:14;;;;;;;9.97;8.57;;;;;;;-148.15;100.00;61821.78;4911998;29;20158;-85
2023/09/26 07:10:40;;;;;;;12.80;8.73;;;;;;;-148.15;100.00;61821.78;4933363;29;20119;-90
2023/09/26 07:13:05;;;;;;;11.85;8.30;;;;;;;-148.15;100.00;61821.78;4923895;29;20196;-93
2023/09/26 07:15:31;;;;;;;11.93;8.80;;;;;;;-148.15;100.00;61821.78;4926823;29;20036;-92
2023/09/26 07:17:58;;;;;;;13.15;8.52;;;;;;;-148.15;100.00;61821.78;4939963;29;20130;-88
2023/09/26 07:20:24;;;;;;;10.38;8.27;;;;;;;-148.15;100.00;61821.78;4936406;29;20036;-92
2023/09/26 07:22:50;;;;;;;10.60;8.80;;;;;;;-148.15;100.00;61821.78;4934171;29;20032;-90
2023/09/26 07:25:15;;;;;;;13.57;8.83;;;;;;;-148.15;100.00;61821.78;4936793;29;20392;-92
2023/09/26 07:27:40;;;;;;;11.03;9.23;;;;;;;-148.15;100.00;61821.78;4935807;29;20111;-91
2023/09/26 07:30:07;;;;;;;15.40;8.37;;;;;;;-148.15;100.00;61821.78;4935281;29;20061;-91
2023/09/26 07:32:33;;;;;;;11.80;8.38;;;;;;;-148.15;100.00;61821.78;4931194;29;20028;-88
2023/09/26 07:34:58;;;;;;;12.33;8.97;;;;;;;-148.15;100.00;61821.78;4935499;29;20590;-89
2023/09/26 07:37:24;;;;;;;9.60;8.02;;;;;;;-148.15;100.00;61821.78;4936002;29;20024;-89
2023/09/26 07:39:51;;;;;;;10.47;8.40;;;;;;;-148.15;100.00;61821.78;4919653;29;20138;-89
2023/09/26 07:42:18;;;;;;;8.53;7.37;;;;;;;-148.15;100.00;61821.78;4922664;29;20308;-89
2023/09/26 07:44:43;;;;;;;13.25;8.00;;;;;;;-148.15;100.00;61821.78;4934122;29;20070;-89
2023/09/26 07:47:09;;;;;;;14.13;7.87;;;;;;;-148.15;100.00;61821.78;4927210;29;20051;-89
2023/09/26 07:49:34;;;;;;;10.57;8.00;;;;;;;-148.15;100.00;61821.78;4924709;29;20295;-89
2023/09/26 07:51:59;;;;;;;10.30;7.70;;;;;;;-148.15;100.00;61821.78;4935058;29;20455;-91
2023/09/26 07:54:25;;;;;;;12.47;7.77;;;;;;;-148.15;100.00;61821.78;4928520;29;20466;-87
2023/09/26 07:56:50;;;;;;;11.07;7.67;;;;;;;-148.15;100.00;61821.78;4927369;29;20034;-87
2023/09/26 07:59:16;;;;;;;9.43;7.37;;;;;;;-148.15;100.00;61821.78;4932680;29;20028;-89
2023/09/26 08:01:42;;;;;;;10.90;7.70;;;;;;;-148.15;100.00;61821.78;4934571;29;20075;-89
2023/09/26 08:04:07;;;;;;;13.13;7.55;;;;;;;-148.15;100.00;61821.78;4933230;29;20428;-89
2023/09/26 08:06:33;;;;;;;10.03;7.70;;;;;;;-148.15;100.00;61821.78;4935425;29;20067;-88
2023/09/26 08:08:58;;;;;;;9.75;6.97;;;;;;;-148.15;100.00;61821.78;4907685;29;20144;-88
2023/09/26 08:11:27;;;;;;;14.80;7.10;;;;;;;-148.15;100.00;61821.78;4932110;29;20036;-92
2023/09/26 08:13:54;;;;;;;9.13;7.35;;;;;;;-148.15;100.00;61821.78;4932605;29;20079;-89
2023/09/26 08:16:20;;;;;;;11.57;7.70;;;;;;;-148.15;100.00;61821.78;4934351;29;20027;-90
2023/09/26 08:18:45;;;;;;;11.93;7.37;;;;;;;-148.15;100.00;61821.78;4934487;29;20276;-89
2023/09/26 08:21:11;;;;;;;16.40;7.65;;;;;;;-148.15;100.00;61821.78;4931291;29;20024;-89
2023/09/26 08:23:37;;;;;;;8.83;7.87;;;;;;;-148.15;100.00;61821.78;4915014;29;20059;-87
2023/09/26 08:26:06;;;;;;;12.77;7.35;;;;;;;-148.15;100.00;61821.78;4935886;29;20054;-90
2023/09/26 08:28:32;;;;;;;10.35;7.28;;;;;;;-148.15;100.00;61821.78;4934742;29;20062;-89
2023/09/26 08:31:04;;;;;;;14.73;7.53;;;;;;;-148.15;100.00;61821.78;4917724;29;20629;-88
2023/09/26 08:33:29;;;;;;;17.77;7.63;;;;;;;-148.15;100.00;61821.78;4935171;29;20032;-89
2023/09/26 08:35:55;;;;;;;11.10;7.63;;;;;;;-148.15;100.00;61821.78;4915785;29;20509;-90
2023/09/26 08:38:20;;;;;;;11.40;6.63;;;;;;;-148.15;100.00;61821.78;4936627;29;20020;-92
2023/09/26 08:40:50;;;;;;;10.63;6.83;;;;;;;-148.15;100.00;61821.78;4927133;29;20384;-91
2023/09/26 08:43:22;;;;;;;10.60;6.13;;;;;;;-148.15;100.00;61821.78;4936125;29;20294;-89
2023/09/26 08:45:48;;;;;;;11.27;6.28;;;;;;;-148.15;100.00;61821.78;4935572;29;20036;-93
2023/09/26 08:48:16;;;;;;;7.13;5.70;;;;;;;-148.15;100.00;61821.78;4938677;29;20027;-96
2023/09/26 08:50:42;;;;;;;10.90;5.87;;;;;;;-148.15;100.00;61821.78;4914483;29;20036;-91
2023/09/26 08:53:07;;;;;;;7.95;5.47;;;;;;;-148.15;100.00;61821.78;4916543;29;20491;-85
2023/09/26 08:55:34;;;;;;;13.93;5.50;;;;;;;-148.15;100.00;61821.78;4926749;29;20032;-83
2023/09/26 08:58:00;;;;;;;7.68;5.82;;;;;;;-148.15;100.00;61821.78;4933503;29;20067;-85
2023/09/26 09:00:26;;;;;;;10.02;5.90;;;;;;;-148.15;100.00;61821.78;4931905;29;20036;-84
2023/09/26 09:02:52;;;;;;;8.73;5.45;;;;;;;-148.15;100.00;61821.78;4928691;29;20032;-85
2023/09/26 09:05:19;;;;;;;8.23;5.43;;;;;;;-148.15;100.00;61821.78;4908548;29;20038;-84
2023/09/26 09:07:46;;;;;;;10.07;5.45;;;;;;;-148.15;100.00;61821.78;4925021;29;20028;-84
2023/09/26 09:10:12;;;;;;;11.32;5.15;;;;;;;-148.15;100.00;61821.78;4926029;29;20028;-88
2023/09/26 09:12:40;;;;;;;12.70;5.10;;;;;;;-148.15;100.00;61821.78;4925164;29;20043;-87
2023/09/26 09:15:28;;;;;;;13.25;4.90;;;;;;;-148.15;100.00;61821.78;4917170;29;20115;-90
2023/09/26 09:17:54;;;;;;;6.20;4.37;;;;;;;-148.15;100.00;61821.78;4926680;29;20040;-86
2023/09/26 09:20:31;;;;;;;12.48;4.95;;;;;;;-148.15;100.00;61821.78;4914550;29;20392;-86
2023/09/26 09:23:01;;;;;;;9.90;4.72;;;;;;;-148.15;100.00;61821.78;4935312;29;20076;-86
2023/09/26 09:25:35;;;;;;;9.18;4.90;;;;;;;-148.15;100.00;61821.78;4917159;29;20043;-86
2023/09/26 09:28:02;;;;;;;7.35;4.78;;;;;;;-148.15;100.00;61821.78;4940746;29;20117;-86
2023/09/26 09:30:28;;;;;;;6.53;4.53;;;;;;;-148.15;100.00;61821.78;4934216;29;20041;-86
2023/09/26 09:32:55;;;;;;;8.20;4.50;;;;;;;-148.15;100.00;61821.78;4925838;29;20170;-86
2023/09/26 09:35:20;;;;;;;8.20;4.10;;;;;;;-148.15;100.00;61821.78;4897709;29;20284;-86
2023/09/26 09:37:50;;;;;;;8.18;4.25;;;;;;;-148.15;100.00;61821.78;4919599;29;20472;-87
2023/09/26 09:40:20;;;;;;;8.95;3.88;;;;;;;-148.15;100.00;61821.78;4916591;29;20078;-87
2023/09/26 09:42:50;;;;;;;10.10;3.80;;;;;;;-148.15;100.00;61821.78;4931440;29;20035;-86
2023/09/26 09:45:17;;;;;;;5.27;4.10;;;;;;;-148.15;100.00;61821.78;4933430;29;20719;-87
2023/09/26 09:47:46;;;;;;;14.25;3.97;;;;;;;-148.15;100.00;61821.78;4930551;29;20032;-86
2023/09/26 09:50:13;;;;;;;6.72;3.65;;;;;;;-148.15;100.00;61821.78;4930093;29;20034;-87
2023/09/26 09:52:48;;;;;;;9.18;3.75;;;;;;;-148.15;100.00;61821.78;4916118;29;20035;-87
2023/09/26 09:55:28;;;;;;;3.97;3.45;;;;;;;-148.15;100.00;61821.78;4933188;29;20034;-86
2023/09/26 09:57:56;;;;;;;6.47;3.88;;;;;;;-148.15;100.00;61821.78;4932799;29;20066;-86
2023/09/26 10:00:24;;;;;;;7.03;3.72;;;;;;;-148.15;100.00;61821.78;4930447;29;20047;-86
2023/09/26 10:02:51;;;;;;;4.97;3.63;;;;;;;-148.15;100.00;61821.78;4933103;29;20027;-87
2023/09/26 10:05:19;;;;;;;5.63;3.67;;;;;;;-148.15;100.00;61821.78;4933147;29;20271;-85
2023/09/26 10:07:46;;;;;;;6.95;2.95;;;;;;;-148.15;100.00;61821.78;4931890;29;20032;-86
2023/09/26 10:10:13;;;;;;;4.90;2.72;;;;;;;-148.15;100.00;61821.78;4923807;29;20028;-86
2023/09/26 10:12:40;;;;;;;5.32;3.03;;;;;;;-148.15;100.00;61821.78;4913970;29;20028;-84
2023/09/26 10:15:11;;;;;;;4.75;3.15;;;;;;;-148.15;100.00;61821.78;4914086;29;20028;-85
2023/09/26 10:17:38;;;;;;;6.82;2.92;;;;;;;-148.15;100.00;61821.78;4931442;29;20510;-85
2023/09/26 10:20:04;;;;;;;6.80;3.08;;;;;;;-148.15;100.00;61821.78;4933507;29;20032;-85
2023/09/26 10:22:34;;;;;;;4.10;2.90;;;;;;;-148.15;100.00;61821.78;4926361;29;20035;-85
2023/09/26 10:25:01;;;;;;;4.55;3.28;;;;;;;-148.15;100.00;61821.78;4927403;29;20024;-85
2023/09/26 10:27:32;;;;;;;7.25;2.80;;;;;;;-148.15;100.00;61821.78;4937429;29;20079;-86
2023/09/26 10:29:58;;;;;;;5.45;3.42;;;;;;;-148.15;100.00;61821.78;4945908;29;20032;-84
2023/09/26 10:32:32;;;;;;;10.88;3.30;;;;;;;-148.15;100.00;61821.78;4947558;29;20043;-86
2023/09/26 10:34:58;;;;;;;5.80;3.35;;;;;;;-148.15;100.00;61821.78;4947366;29;20024;-85
2023/09/26 10:37:26;;;;;;;3.80;2.97;;;;;;;-148.15;100.00;61821.78;4940450;29;20058;-86
2023/09/26 10:39:52;;;;;;;8.20;3.20;;;;;;;-148.15;100.00;61821.78;4936235;29;20295;-85
2023/09/26 10:42:20;;;;;;;5.03;2.90;;;;;;;-148.15;100.00;61821.78;4927733;29;20440;-86
2023/09/26 10:44:46;;;;;;;5.38;3.17;;;;;;;-148.15;100.00;61821.78;4905883;29;20379;-86
2023/09/26 10:47:15;;;;;;;7.40;3.67;;;;;;;-148.15;100.00;61821.78;4915674;29;20028;-86
2023/09/26 10:49:41;;;;;;;6.20;2.95;;;;;;;-148.15;100.00;61821.78;4915475;29;20474;-86
2023/09/26 10:52:08;;;;;;;5.95;2.95;;;;;;;-148.15;100.00;61821.78;4920651;29;20028;-86
2023/09/26 10:54:36;;;;;;;5.10;3.03;;;;;;;-148.15;100.00;61821.78;4926598;29;20107;-86
2023/09/26 10:57:01;;;;;;;6.53;3.15;;;;;;;-148.15;100.00;61821.78;4929682;29;20034;-86
2023/09/26 10:59:30;;;;;;;8.53;3.43;;;;;;;-148.15;100.00;61821.78;4931929;29;20016;-85
2023/09/26 11:01:57;;;;;;;6.32;3.15;;;;;;;-148.15;100.00;61821.78;4912900;29;20024;-85
2023/09/26 11:04:28;;;;;;;6.18;3.42;;;;;;;-148.15;100.00;61821.78;4921577;29;20040;-84
2023/09/26 11:06:57;;;;;;;3.90;2.97;;;;;;;-148.15;100.00;61821.78;4939822;29;20032;-90
2023/09/26 11:09:23;;;;;;;5.33;3.23;;;;;;;-148.15;100.00;61821.78;4912789;29;20088;-88
2023/09/26 11:11:48;;;;;;;193.73;128.40;;;;;;;-148.15;100.00;61821.78;4907185;29;20295;-90
2023/09/26 11:14:18;;;;;;;35.70;23.45;;;;;;;-148.15;100.00;61821.78;4915898;29;20053;-89
2023/09/26 11:16:44;;;;;;;7.63;5.13;;;;;;;-148.15;100.00;61821.78;4912859;29;20032;-90